createdAt,value
2019-03-08T00:05:34.720Z,8.02
2019-03-08T00:11:39.458Z,8.04
2019-03-08T00:17:44.424Z,7.99
2019-03-08T00:23:49.636Z,8.15
2019-03-08T00:29:54.183Z,8.18
2019-03-08T00:35:59.497Z,8.14
2019-03-08T00:42:04.507Z,8.25
2019-03-08T00:48:09.087Z,8.23
2019-03-08T00:54:15.340Z,8.32
2019-03-08T01:00:23.781Z,8.39
2019-03-08T01:06:28.771Z,8.46
2019-03-08T01:12:33.345Z,8.52
2019-03-08T01:18:38.177Z,8.50
2019-03-08T01:24:42.774Z,8.44
2019-03-08T01:30:47.716Z,8.31
2019-03-08T01:36:52.827Z,8.34
2019-03-08T01:42:57.470Z,8.26
2019-03-08T01:49:02.227Z,8.33
2019-03-08T01:55:08.084Z,8.24
2019-03-08T02:01:12.701Z,8.36
2019-03-08T02:07:17.364Z,8.44
2019-03-08T02:13:21.993Z,8.46
2019-03-08T02:19:26.579Z,8.56
2019-03-08T02:25:31.140Z,8.62
2019-03-08T02:31:35.731Z,8.55
2019-03-08T02:37:40.321Z,8.67
2019-03-08T02:43:46.687Z,8.64
2019-03-08T02:49:51.457Z,8.60
2019-03-08T02:55:56.024Z,8.58
2019-03-08T03:02:00.580Z,8.57
2019-03-08T03:08:05.296Z,8.64
2019-03-08T03:14:09.895Z,8.56
2019-03-08T03:20:17.103Z,8.55
2019-03-08T03:26:21.874Z,8.48
2019-03-08T03:32:26.536Z,8.48
2019-03-08T03:38:31.249Z,8.39
2019-03-08T03:44:35.836Z,8.25
2019-03-08T03:50:40.544Z,8.38
2019-03-08T03:56:45.238Z,8.31
2019-03-08T04:02:49.980Z,8.36
2019-03-08T04:08:54.629Z,8.38
2019-03-08T04:14:59.172Z,8.28
2019-03-08T04:21:03.806Z,8.28
2019-03-08T04:27:08.711Z,8.25
2019-03-08T04:33:13.790Z,8.05
2019-03-08T04:39:18.526Z,7.94
2019-03-08T04:45:23.498Z,7.77
2019-03-08T04:51:28.259Z,7.62
2019-03-08T04:57:32.805Z,7.66
2019-03-08T05:03:37.493Z,7.50
2019-03-08T05:09:42.433Z,7.20
2019-03-08T05:15:46.987Z,6.95
2019-03-08T05:21:51.676Z,6.83
2019-03-08T05:27:56.280Z,6.72
2019-03-08T05:34:00.933Z,6.58
2019-03-08T05:40:09.868Z,6.53
2019-03-08T05:46:14.703Z,6.56
2019-03-08T05:52:19.562Z,6.66
2019-03-08T05:58:24.130Z,6.72
2019-03-08T06:04:28.748Z,6.82
2019-03-08T06:10:35.402Z,6.86
2019-03-08T06:16:40.094Z,6.83
2019-03-08T06:22:45.146Z,6.90
2019-03-08T06:28:50.308Z,6.90
2019-03-08T06:34:54.859Z,6.98
2019-03-08T06:40:59.533Z,7.14
2019-03-08T06:47:04.190Z,7.15
2019-03-08T06:53:08.816Z,7.25
2019-03-08T06:59:17.776Z,7.23
2019-03-08T07:05:22.421Z,7.27
2019-03-08T07:11:27.228Z,7.11
2019-03-08T07:17:31.966Z,7.21
2019-03-08T07:23:41.091Z,7.16
2019-03-08T07:29:51.544Z,7.26
2019-03-08T07:36:07.383Z,7.23
2019-03-08T07:42:29.775Z,7.31
2019-03-08T07:48:45.232Z,7.24
2019-03-08T07:54:58.950Z,7.18
2019-03-08T08:01:23.688Z,7.24
2019-03-08T08:07:28.078Z,7.27
2019-03-08T08:13:41.261Z,7.32
2019-03-08T08:20:03.756Z,7.25
2019-03-08T08:26:25.995Z,7.32
2019-03-08T08:32:39.274Z,7.28
2019-03-08T08:38:51.676Z,7.29
2019-03-08T08:45:13.155Z,7.35
2019-03-08T08:51:19.723Z,7.47
2019-03-08T08:57:34.936Z,7.70
2019-03-08T09:03:43.888Z,7.63
2019-03-08T09:09:56.461Z,7.56
2019-03-08T09:16:02.800Z,7.37
2019-03-08T09:22:15.031Z,6.93
2019-03-08T09:28:27.181Z,6.37
2019-03-08T09:34:42.345Z,6.18
2019-03-08T09:40:56.831Z,6.26
2019-03-08T09:47:03.233Z,6.47
2019-03-08T09:53:15.804Z,6.60
2019-03-08T09:59:31.003Z,7.08
2019-03-08T10:05:46.486Z,7.62
2019-03-08T10:12:06.349Z,7.91
2019-03-08T10:18:15.717Z,7.50
2019-03-08T10:24:24.568Z,6.24
2019-03-08T10:30:47.364Z,5.83
2019-03-08T10:36:56.169Z,5.69
2019-03-08T10:43:02.449Z,5.82
2019-03-08T10:49:11.845Z,5.96
2019-03-08T10:55:34.552Z,6.06
2019-03-08T11:01:56.163Z,6.22
2019-03-08T11:08:17.960Z,6.40
2019-03-08T11:14:40.621Z,6.75
2019-03-08T11:21:03.017Z,7.08
2019-03-08T11:27:09.390Z,7.32
2019-03-08T11:33:15.806Z,7.35
2019-03-08T11:39:29.425Z,7.65
2019-03-08T11:45:35.682Z,7.78
2019-03-08T11:51:55.050Z,9.51
2019-03-08T11:58:13.686Z,10.60
2019-03-08T12:04:23.049Z,11.29
2019-03-08T12:10:29.375Z,11.72
2019-03-08T12:16:51.908Z,10.15
2019-03-08T12:23:18.111Z,9.79
2019-03-08T12:29:40.467Z,10.24
2019-03-08T12:35:52.588Z,10.80
2019-03-08T12:42:15.820Z,11.90
2019-03-08T12:48:25.056Z,13.15
2019-03-08T12:54:31.270Z,13.62
2019-03-08T13:00:37.520Z,12.62
2019-03-08T13:06:43.796Z,10.48
2019-03-08T13:12:48.369Z,9.39
2019-03-08T13:18:52.926Z,8.84
2019-03-08T13:24:57.477Z,8.19
2019-03-08T13:31:02.092Z,7.58
2019-03-08T13:37:06.729Z,7.09
2019-03-08T13:43:11.297Z,6.98
2019-03-08T13:49:15.975Z,6.95
2019-03-08T13:55:20.533Z,8.85
2019-03-08T14:01:25.091Z,8.74
2019-03-08T14:07:29.801Z,7.93
2019-03-08T14:13:34.347Z,7.40
2019-03-08T14:19:38.905Z,7.34
2019-03-08T14:25:43.673Z,7.84
2019-03-08T14:31:52.895Z,7.58
2019-03-08T14:37:57.511Z,7.80
2019-03-08T14:44:17.019Z,10.75
2019-03-08T14:50:21.988Z,13.36
2019-03-08T14:56:26.577Z,12.14
2019-03-08T15:02:31.482Z,9.79
2019-03-08T15:08:36.107Z,9.01
2019-03-08T15:14:40.740Z,9.27
2019-03-08T15:20:45.881Z,8.66
2019-03-08T15:26:50.619Z,8.41
2019-03-08T15:32:55.187Z,9.10
2019-03-08T15:38:59.738Z,11.57
2019-03-08T15:45:07.141Z,12.47
2019-03-08T15:51:12.123Z,12.43
2019-03-08T15:57:17.251Z,11.91
2019-03-08T16:03:21.821Z,11.91
2019-03-08T16:09:26.485Z,11.97
2019-03-08T16:15:31.040Z,10.91
2019-03-08T16:21:35.600Z,9.90
2019-03-08T16:27:40.670Z,9.18
2019-03-08T16:33:46.703Z,8.89
2019-03-08T16:39:55.946Z,7.54
2019-03-08T16:46:07.695Z,7.31
2019-03-08T16:52:26.089Z,7.03
2019-03-08T16:58:38.971Z,6.88
2019-03-08T17:04:45.386Z,6.68
2019-03-08T17:11:02.039Z,6.60
2019-03-08T17:17:11.039Z,6.33
2019-03-08T17:23:19.882Z,6.14
2019-03-08T17:29:42.244Z,5.87
2019-03-08T17:35:48.582Z,5.77
2019-03-08T17:41:52.924Z,5.40
2019-03-08T17:47:57.238Z,5.42
2019-03-08T17:54:01.678Z,5.50
2019-03-08T18:00:30.324Z,5.80
2019-03-08T18:06:52.528Z,5.95
2019-03-08T18:12:59.091Z,6.01
2019-03-08T18:19:06.161Z,6.00
2019-03-08T18:25:12.535Z,5.91
2019-03-08T18:31:18.717Z,5.88
2019-03-08T18:37:24.907Z,5.66
2019-03-08T18:43:31.557Z,5.84
2019-03-08T18:49:55.711Z,5.64
2019-03-08T18:56:02.206Z,5.41
2019-03-08T19:02:24.668Z,5.41
2019-03-08T19:08:30.880Z,5.24
2019-03-08T19:14:44.233Z,5.19
2019-03-08T19:20:51.178Z,5.34
2019-03-08T19:27:13.767Z,5.46
2019-03-08T19:33:20.935Z,5.63
2019-03-08T19:39:33.962Z,5.78
2019-03-08T19:45:44.805Z,5.89
2019-03-08T19:51:55.104Z,6.07
2019-03-08T19:58:17.862Z,6.02
2019-03-08T20:04:33.139Z,6.12
2019-03-08T20:10:38.017Z,6.41
2019-03-08T20:16:44.216Z,6.41
2019-03-08T20:22:48.931Z,6.54
2019-03-08T20:28:55.953Z,6.56
2019-03-08T20:35:02.342Z,6.45
2019-03-08T20:41:14.384Z,6.34
2019-03-08T20:47:23.759Z,6.48
2019-03-08T20:53:28.448Z,6.35
2019-03-08T20:59:33.123Z,6.40
2019-03-08T21:05:37.876Z,6.46
2019-03-08T21:11:42.724Z,6.63
2019-03-08T21:17:48.328Z,6.57
2019-03-08T21:23:52.972Z,6.69
2019-03-08T21:29:57.890Z,6.88
2019-03-08T21:36:02.513Z,7.11
2019-03-08T21:42:07.326Z,7.30
2019-03-08T21:48:12.078Z,7.22
2019-03-08T21:54:16.723Z,7.51
2019-03-08T22:00:26.795Z,7.58
2019-03-08T22:06:31.468Z,7.54
2019-03-08T22:12:36.238Z,7.40
2019-03-08T22:18:41.055Z,7.32
2019-03-08T22:24:47.615Z,7.50
2019-03-08T22:30:52.298Z,7.38
2019-03-08T22:36:57.295Z,7.41
2019-03-08T22:43:02.265Z,7.54
2019-03-08T22:49:06.870Z,7.13
2019-03-08T22:55:15.962Z,7.32
2019-03-08T23:01:22.954Z,7.12
2019-03-08T23:07:27.585Z,7.20
2019-03-08T23:13:32.145Z,7.18
2019-03-08T23:19:36.774Z,7.23
2019-03-08T23:25:41.870Z,7.14
2019-03-08T23:32:04.650Z,7.02
2019-03-08T23:38:10.139Z,7.08
2019-03-08T23:44:14.897Z,6.98
2019-03-08T23:50:19.788Z,7.03
2019-03-08T23:56:24.473Z,7.15
